sensor_id;sensor_type;location;lat;lon;timestamp;P1;P2;P0
33431;PMS5003;35187;31.882;34.828;2023-07-28T00:01:35;16;15;
33431;PMS5003;35187;31.882;34.828;2023-07-28T00:04:04;17;17;
33431;PMS5003;35187;31.882;34.828;2023-07-28T00:06:34;17;15;
33431;PMS5003;35187;31.882;34.828;2023-07-28T00:09:02;18;16;
33431;PMS5003;35187;31.882;34.828;2023-07-28T00:11:31;20;18;
33431;PMS5003;35187;31.882;34.828;2023-07-28T00:14:00;15;13;
33431;PMS5003;35187;31.882;34.828;2023-07-28T00:16:29;19;17;
33431;PMS5003;35187;31.882;34.828;2023-07-28T00:18:58;18;16;
33431;PMS5003;35187;31.882;34.828;2023-07-28T00:21:27;17;16;
33431;PMS5003;35187;31.882;34.828;2023-07-28T00:23:56;14;13;
33431;PMS5003;35187;31.882;34.828;2023-07-28T00:26:25;17;17;
33431;PMS5003;35187;31.882;34.828;2023-07-28T00:28:54;13;13;
33431;PMS5003;35187;31.882;34.828;2023-07-28T00:31:23;19;18;
33431;PMS5003;35187;31.882;34.828;2023-07-28T00:33:51;17;16;
33431;PMS5003;35187;31.882;34.828;2023-07-28T00:36:20;20;18;
33431;PMS5003;35187;31.882;34.828;2023-07-28T00:38:49;18;17;
33431;PMS5003;35187;31.882;34.828;2023-07-28T00:41:18;16;15;
33431;PMS5003;35187;31.882;34.828;2023-07-28T00:43:47;17;17;
33431;PMS5003;35187;31.882;34.828;2023-07-28T00:46:16;17;16;
33431;PMS5003;35187;31.882;34.828;2023-07-28T00:48:45;19;18;
33431;PMS5003;35187;31.882;34.828;2023-07-28T00:51:14;17;16;
33431;PMS5003;35187;31.882;34.828;2023-07-28T00:53:43;15;14;
33431;PMS5003;35187;31.882;34.828;2023-07-28T00:56:15;24;19;
33431;PMS5003;35187;31.882;34.828;2023-07-28T00:58:44;20;16;
33431;PMS5003;35187;31.882;34.828;2023-07-28T01:01:13;20;18;
33431;PMS5003;35187;31.882;34.828;2023-07-28T01:03:45;17;16;
33431;PMS5003;35187;31.882;34.828;2023-07-28T01:06:20;18;17;
33431;PMS5003;35187;31.882;34.828;2023-07-28T01:09:03;18;16;
33431;PMS5003;35187;31.882;34.828;2023-07-28T01:11:37;13;12;
33431;PMS5003;35187;31.882;34.828;2023-07-28T01:14:06;15;15;
33431;PMS5003;35187;31.882;34.828;2023-07-28T01:16:35;18;17;
33431;PMS5003;35187;31.882;34.828;2023-07-28T01:19:04;17;16;
33431;PMS5003;35187;31.882;34.828;2023-07-28T01:21:38;18;18;
33431;PMS5003;35187;31.882;34.828;2023-07-28T01:24:15;17;16;
33431;PMS5003;35187;31.882;34.828;2023-07-28T01:26:55;19;18;
33431;PMS5003;35187;31.882;34.828;2023-07-28T01:29:24;15;15;
33431;PMS5003;35187;31.882;34.828;2023-07-28T01:31:54;16;15;
33431;PMS5003;35187;31.882;34.828;2023-07-28T01:34:23;18;16;
33431;PMS5003;35187;31.882;34.828;2023-07-28T01:36:51;16;15;
33431;PMS5003;35187;31.882;34.828;2023-07-28T01:39:20;20;16;
33431;PMS5003;35187;31.882;34.828;2023-07-28T01:41:49;15;14;
33431;PMS5003;35187;31.882;34.828;2023-07-28T01:44:18;20;19;
33431;PMS5003;35187;31.882;34.828;2023-07-28T01:46:47;17;16;
33431;PMS5003;35187;31.882;34.828;2023-07-28T01:49:16;20;18;
33431;PMS5003;35187;31.882;34.828;2023-07-28T01:51:45;17;17;
33431;PMS5003;35187;31.882;34.828;2023-07-28T01:54:14;15;15;
33431;PMS5003;35187;31.882;34.828;2023-07-28T01:56:43;17;16;
33431;PMS5003;35187;31.882;34.828;2023-07-28T01:59:12;17;16;
33431;PMS5003;35187;31.882;34.828;2023-07-28T02:01:41;19;16;
33431;PMS5003;35187;31.882;34.828;2023-07-28T02:04:10;17;15;
33431;PMS5003;35187;31.882;34.828;2023-07-28T02:06:39;19;18;
33431;PMS5003;35187;31.882;34.828;2023-07-28T02:09:08;16;16;
33431;PMS5003;35187;31.882;34.828;2023-07-28T02:11:37;20;15;
33431;PMS5003;35187;31.882;34.828;2023-07-28T02:14:06;18;16;
33431;PMS5003;35187;31.882;34.828;2023-07-28T02:16:35;15;14;
33431;PMS5003;35187;31.882;34.828;2023-07-28T02:19:04;17;17;
33431;PMS5003;35187;31.882;34.828;2023-07-28T02:21:33;18;16;
33431;PMS5003;35187;31.882;34.828;2023-07-28T02:24:02;18;16;
33431;PMS5003;35187;31.882;34.828;2023-07-28T02:26:31;17;16;
33431;PMS5003;35187;31.882;34.828;2023-07-28T02:29:00;18;16;
33431;PMS5003;35187;31.882;34.828;2023-07-28T02:31:29;16;15;
33431;PMS5003;35187;31.882;34.828;2023-07-28T02:33:58;22;17;
33431;PMS5003;35187;31.882;34.828;2023-07-28T02:36:27;16;14;
33431;PMS5003;35187;31.882;34.828;2023-07-28T02:38:55;17;17;
33431;PMS5003;35187;31.882;34.828;2023-07-28T02:41:24;20;19;
33431;PMS5003;35187;31.882;34.828;2023-07-28T02:43:53;16;15;
33431;PMS5003;35187;31.882;34.828;2023-07-28T02:46:22;21;18;
33431;PMS5003;35187;31.882;34.828;2023-07-28T02:48:51;17;16;
33431;PMS5003;35187;31.882;34.828;2023-07-28T02:51:20;15;14;
33431;PMS5003;35187;31.882;34.828;2023-07-28T02:53:49;17;17;
33431;PMS5003;35187;31.882;34.828;2023-07-28T02:56:18;19;17;
33431;PMS5003;35187;31.882;34.828;2023-07-28T02:58:47;18;18;
33431;PMS5003;35187;31.882;34.828;2023-07-28T03:01:16;23;19;
33431;PMS5003;35187;31.882;34.828;2023-07-28T03:03:45;18;17;
33431;PMS5003;35187;31.882;34.828;2023-07-28T03:06:14;20;19;
33431;PMS5003;35187;31.882;34.828;2023-07-28T03:08:43;16;15;
33431;PMS5003;35187;31.882;34.828;2023-07-28T03:11:12;17;14;
33431;PMS5003;35187;31.882;34.828;2023-07-28T03:13:40;20;18;
33431;PMS5003;35187;31.882;34.828;2023-07-28T03:16:09;17;15;
33431;PMS5003;35187;31.882;34.828;2023-07-28T03:18:38;18;17;
33431;PMS5003;35187;31.882;34.828;2023-07-28T03:21:08;15;14;
33431;PMS5003;35187;31.882;34.828;2023-07-28T03:23:37;17;16;
33431;PMS5003;35187;31.882;34.828;2023-07-28T03:26:07;15;14;
33431;PMS5003;35187;31.882;34.828;2023-07-28T03:28:36;16;15;
33431;PMS5003;35187;31.882;34.828;2023-07-28T03:31:05;21;17;
33431;PMS5003;35187;31.882;34.828;2023-07-28T03:33:34;18;17;
33431;PMS5003;35187;31.882;34.828;2023-07-28T03:36:03;17;14;
33431;PMS5003;35187;31.882;34.828;2023-07-28T03:38:31;16;15;
33431;PMS5003;35187;31.882;34.828;2023-07-28T03:41:00;22;18;
33431;PMS5003;35187;31.882;34.828;2023-07-28T03:43:29;18;15;
33431;PMS5003;35187;31.882;34.828;2023-07-28T03:45:58;18;16;
33431;PMS5003;35187;31.882;34.828;2023-07-28T03:48:27;16;15;
33431;PMS5003;35187;31.882;34.828;2023-07-28T03:50:56;17;15;
33431;PMS5003;35187;31.882;34.828;2023-07-28T03:53:25;19;17;
33431;PMS5003;35187;31.882;34.828;2023-07-28T03:55:53;14;13;
33431;PMS5003;35187;31.882;34.828;2023-07-28T03:58:22;18;15;
33431;PMS5003;35187;31.882;34.828;2023-07-28T04:00:51;18;17;
33431;PMS5003;35187;31.882;34.828;2023-07-28T04:03:20;19;18;
33431;PMS5003;35187;31.882;34.828;2023-07-28T04:05:50;16;15;
33431;PMS5003;35187;31.882;34.828;2023-07-28T04:08:18;17;15;
33431;PMS5003;35187;31.882;34.828;2023-07-28T04:10:47;15;15;
33431;PMS5003;35187;31.882;34.828;2023-07-28T04:13:16;19;16;
33431;PMS5003;35187;31.882;34.828;2023-07-28T04:15:45;18;15;
33431;PMS5003;35187;31.882;34.828;2023-07-28T04:18:14;22;19;
33431;PMS5003;35187;31.882;34.828;2023-07-28T04:20:42;15;15;
33431;PMS5003;35187;31.882;34.828;2023-07-28T04:23:11;17;16;
33431;PMS5003;35187;31.882;34.828;2023-07-28T04:25:40;20;17;
33431;PMS5003;35187;31.882;34.828;2023-07-28T04:28:09;18;16;
33431;PMS5003;35187;31.882;34.828;2023-07-28T04:30:39;22;18;
33431;PMS5003;35187;31.882;34.828;2023-07-28T04:33:07;19;17;
33431;PMS5003;35187;31.882;34.828;2023-07-28T04:35:36;15;14;
33431;PMS5003;35187;31.882;34.828;2023-07-28T04:38:05;16;15;
33431;PMS5003;35187;31.882;34.828;2023-07-28T04:40:34;19;19;
33431;PMS5003;35187;31.882;34.828;2023-07-28T04:43:03;20;16;
33431;PMS5003;35187;31.882;34.828;2023-07-28T04:45:32;16;15;
33431;PMS5003;35187;31.882;34.828;2023-07-28T04:48:00;15;13;
33431;PMS5003;35187;31.882;34.828;2023-07-28T04:50:30;14;14;
33431;PMS5003;35187;31.882;34.828;2023-07-28T04:52:59;14;14;
33431;PMS5003;35187;31.882;34.828;2023-07-28T04:55:28;15;15;
33431;PMS5003;35187;31.882;34.828;2023-07-28T04:57:57;16;15;
33431;PMS5003;35187;31.882;34.828;2023-07-28T05:00:26;14;14;
33431;PMS5003;35187;31.882;34.828;2023-07-28T05:02:55;13;12;
33431;PMS5003;35187;31.882;34.828;2023-07-28T05:05:24;14;14;
33431;PMS5003;35187;31.882;34.828;2023-07-28T05:07:53;16;14;
33431;PMS5003;35187;31.882;34.828;2023-07-28T05:10:22;14;13;
33431;PMS5003;35187;31.882;34.828;2023-07-28T05:12:51;14;13;
33431;PMS5003;35187;31.882;34.828;2023-07-28T05:15:19;15;14;
33431;PMS5003;35187;31.882;34.828;2023-07-28T05:17:48;13;13;
33431;PMS5003;35187;31.882;34.828;2023-07-28T05:20:17;15;15;
33431;PMS5003;35187;31.882;34.828;2023-07-28T05:22:46;16;14;
33431;PMS5003;35187;31.882;34.828;2023-07-28T05:25:15;14;14;
33431;PMS5003;35187;31.882;34.828;2023-07-28T05:27:44;18;16;
33431;PMS5003;35187;31.882;34.828;2023-07-28T05:30:13;13;13;
33431;PMS5003;35187;31.882;34.828;2023-07-28T05:32:42;14;12;
33431;PMS5003;35187;31.882;34.828;2023-07-28T05:35:11;13;11;
33431;PMS5003;35187;31.882;34.828;2023-07-28T05:37:40;14;14;
33431;PMS5003;35187;31.882;34.828;2023-07-28T05:40:09;14;14;
33431;PMS5003;35187;31.882;34.828;2023-07-28T05:42:39;13;12;
33431;PMS5003;35187;31.882;34.828;2023-07-28T05:45:09;15;14;
33431;PMS5003;35187;31.882;34.828;2023-07-28T05:47:39;15;12;
33431;PMS5003;35187;31.882;34.828;2023-07-28T05:50:08;14;13;
33431;PMS5003;35187;31.882;34.828;2023-07-28T05:52:37;13;12;
33431;PMS5003;35187;31.882;34.828;2023-07-28T05:55:06;15;14;
33431;PMS5003;35187;31.882;34.828;2023-07-28T05:57:36;14;13;
33431;PMS5003;35187;31.882;34.828;2023-07-28T06:00:05;15;13;
33431;PMS5003;35187;31.882;34.828;2023-07-28T06:02:35;14;14;
33431;PMS5003;35187;31.882;34.828;2023-07-28T06:05:05;16;16;
33431;PMS5003;35187;31.882;34.828;2023-07-28T06:07:34;15;13;
33431;PMS5003;35187;31.882;34.828;2023-07-28T06:10:03;12;11;
33431;PMS5003;35187;31.882;34.828;2023-07-28T06:12:33;13;12;
33431;PMS5003;35187;31.882;34.828;2023-07-28T06:15:02;16;16;
33431;PMS5003;35187;31.882;34.828;2023-07-28T06:17:31;16;14;
33431;PMS5003;35187;31.882;34.828;2023-07-28T06:20:00;16;14;
33431;PMS5003;35187;31.882;34.828;2023-07-28T06:22:29;17;15;
33431;PMS5003;35187;31.882;34.828;2023-07-28T06:24:58;15;14;
33431;PMS5003;35187;31.882;34.828;2023-07-28T06:27:26;15;15;
33431;PMS5003;35187;31.882;34.828;2023-07-28T06:29:58;15;14;
33431;PMS5003;35187;31.882;34.828;2023-07-28T06:32:27;16;16;
33431;PMS5003;35187;31.882;34.828;2023-07-28T06:34:56;15;15;
33431;PMS5003;35187;31.882;34.828;2023-07-28T06:37:25;14;13;
33431;PMS5003;35187;31.882;34.828;2023-07-28T06:39:54;17;15;
33431;PMS5003;35187;31.882;34.828;2023-07-28T06:42:23;15;14;
33431;PMS5003;35187;31.882;34.828;2023-07-28T06:44:52;13;13;
33431;PMS5003;35187;31.882;34.828;2023-07-28T06:47:22;14;14;
33431;PMS5003;35187;31.882;34.828;2023-07-28T06:49:51;12;12;
33431;PMS5003;35187;31.882;34.828;2023-07-28T06:52:19;13;13;
33431;PMS5003;35187;31.882;34.828;2023-07-28T06:54:48;15;13;
33431;PMS5003;35187;31.882;34.828;2023-07-28T06:57:17;12;10;
33431;PMS5003;35187;31.882;34.828;2023-07-28T06:59:46;13;12;
33431;PMS5003;35187;31.882;34.828;2023-07-28T07:02:15;13;12;
33431;PMS5003;35187;31.882;34.828;2023-07-28T07:04:43;15;14;
33431;PMS5003;35187;31.882;34.828;2023-07-28T07:07:12;14;13;
33431;PMS5003;35187;31.882;34.828;2023-07-28T07:09:41;15;13;
33431;PMS5003;35187;31.882;34.828;2023-07-28T07:12:10;21;21;
33431;PMS5003;35187;31.882;34.828;2023-07-28T07:14:39;16;16;
33431;PMS5003;35187;31.882;34.828;2023-07-28T07:17:08;14;12;
33431;PMS5003;35187;31.882;34.828;2023-07-28T07:19:37;12;11;
33431;PMS5003;35187;31.882;34.828;2023-07-28T07:22:06;14;13;
33431;PMS5003;35187;31.882;34.828;2023-07-28T07:24:35;13;13;
33431;PMS5003;35187;31.882;34.828;2023-07-28T07:27:04;12;10;
33431;PMS5003;35187;31.882;34.828;2023-07-28T07:29:33;12;12;
33431;PMS5003;35187;31.882;34.828;2023-07-28T07:32:03;11;11;
33431;PMS5003;35187;31.882;34.828;2023-07-28T07:34:33;13;12;
33431;PMS5003;35187;31.882;34.828;2023-07-28T07:37:02;13;12;
33431;PMS5003;35187;31.882;34.828;2023-07-28T07:39:32;15;13;
33431;PMS5003;35187;31.882;34.828;2023-07-28T07:42:01;10;9;
33431;PMS5003;35187;31.882;34.828;2023-07-28T07:44:30;11;10;
33431;PMS5003;35187;31.882;34.828;2023-07-28T07:47:00;16;13;
33431;PMS5003;35187;31.882;34.828;2023-07-28T07:49:39;13;12;
33431;PMS5003;35187;31.882;34.828;2023-07-28T07:52:08;11;11;
33431;PMS5003;35187;31.882;34.828;2023-07-28T07:54:37;13;13;
33431;PMS5003;35187;31.882;34.828;2023-07-28T07:57:06;11;10;
33431;PMS5003;35187;31.882;34.828;2023-07-28T07:59:35;13;13;
33431;PMS5003;35187;31.882;34.828;2023-07-28T08:02:05;17;16;
33431;PMS5003;35187;31.882;34.828;2023-07-28T08:04:34;17;16;
33431;PMS5003;35187;31.882;34.828;2023-07-28T08:07:03;13;13;
33431;PMS5003;35187;31.882;34.828;2023-07-28T08:09:32;15;14;
33431;PMS5003;35187;31.882;34.828;2023-07-28T08:12:01;14;14;
33431;PMS5003;35187;31.882;34.828;2023-07-28T08:14:31;19;18;
33431;PMS5003;35187;31.882;34.828;2023-07-28T08:17:00;17;16;
33431;PMS5003;35187;31.882;34.828;2023-07-28T08:19:29;16;15;
33431;PMS5003;35187;31.882;34.828;2023-07-28T08:21:58;20;19;
33431;PMS5003;35187;31.882;34.828;2023-07-28T08:24:27;17;17;
33431;PMS5003;35187;31.882;34.828;2023-07-28T08:26:57;18;18;
33431;PMS5003;35187;31.882;34.828;2023-07-28T08:29:26;21;20;
33431;PMS5003;35187;31.882;34.828;2023-07-28T08:31:55;18;17;
33431;PMS5003;35187;31.882;34.828;2023-07-28T08:34:25;19;18;
33431;PMS5003;35187;31.882;34.828;2023-07-28T08:36:54;22;20;
33431;PMS5003;35187;31.882;34.828;2023-07-28T08:39:23;24;22;
33431;PMS5003;35187;31.882;34.828;2023-07-28T08:41:57;21;18;
33431;PMS5003;35187;31.882;34.828;2023-07-28T08:44:26;19;19;
33431;PMS5003;35187;31.882;34.828;2023-07-28T08:46:59;20;19;
33431;PMS5003;35187;31.882;34.828;2023-07-28T08:49:29;16;16;
33431;PMS5003;35187;31.882;34.828;2023-07-28T08:51:59;19;18;
33431;PMS5003;35187;31.882;34.828;2023-07-28T08:54:29;21;20;
33431;PMS5003;35187;31.882;34.828;2023-07-28T08:56:58;19;19;
33431;PMS5003;35187;31.882;34.828;2023-07-28T08:59:28;20;18;
33431;PMS5003;35187;31.882;34.828;2023-07-28T09:01:57;22;21;
33431;PMS5003;35187;31.882;34.828;2023-07-28T09:04:26;22;21;
33431;PMS5003;35187;31.882;34.828;2023-07-28T09:06:55;23;21;
33431;PMS5003;35187;31.882;34.828;2023-07-28T09:09:24;18;18;
33431;PMS5003;35187;31.882;34.828;2023-07-28T09:12:00;18;17;
33431;PMS5003;35187;31.882;34.828;2023-07-28T09:14:29;23;20;
33431;PMS5003;35187;31.882;34.828;2023-07-28T09:17:05;21;20;
33431;PMS5003;35187;31.882;34.828;2023-07-28T09:19:48;23;22;
33431;PMS5003;35187;31.882;34.828;2023-07-28T09:22:18;19;19;
33431;PMS5003;35187;31.882;34.828;2023-07-28T09:24:48;20;19;
33431;PMS5003;35187;31.882;34.828;2023-07-28T09:27:19;19;19;
33431;PMS5003;35187;31.882;34.828;2023-07-28T09:29:49;21;20;
33431;PMS5003;35187;31.882;34.828;2023-07-28T09:32:26;20;18;
33431;PMS5003;35187;31.882;34.828;2023-07-28T09:35:05;20;20;
33431;PMS5003;35187;31.882;34.828;2023-07-28T09:37:37;17;16;
33431;PMS5003;35187;31.882;34.828;2023-07-28T09:40:08;19;17;
33431;PMS5003;35187;31.882;34.828;2023-07-28T09:42:38;17;16;
33431;PMS5003;35187;31.882;34.828;2023-07-28T09:45:08;19;18;
33431;PMS5003;35187;31.882;34.828;2023-07-28T09:47:39;16;16;
33431;PMS5003;35187;31.882;34.828;2023-07-28T09:50:11;16;16;
33431;PMS5003;35187;31.882;34.828;2023-07-28T09:52:43;19;18;
33431;PMS5003;35187;31.882;34.828;2023-07-28T09:55:17;14;13;
33431;PMS5003;35187;31.882;34.828;2023-07-28T09:57:50;14;13;
33431;PMS5003;35187;31.882;34.828;2023-07-28T10:00:20;13;13;
33431;PMS5003;35187;31.882;34.828;2023-07-28T10:02:53;13;13;
33431;PMS5003;35187;31.882;34.828;2023-07-28T10:05:24;12;12;
33431;PMS5003;35187;31.882;34.828;2023-07-28T10:07:54;12;10;
33431;PMS5003;35187;31.882;34.828;2023-07-28T10:10:24;12;11;
33431;PMS5003;35187;31.882;34.828;2023-07-28T10:12:54;11;11;
33431;PMS5003;35187;31.882;34.828;2023-07-28T10:15:27;9;9;
33431;PMS5003;35187;31.882;34.828;2023-07-28T10:17:58;10;9;
33431;PMS5003;35187;31.882;34.828;2023-07-28T10:20:29;11;11;
33431;PMS5003;35187;31.882;34.828;2023-07-28T10:23:03;13;11;
33431;PMS5003;35187;31.882;34.828;2023-07-28T10:25:34;11;10;
33431;PMS5003;35187;31.882;34.828;2023-07-28T10:28:06;10;9;
33431;PMS5003;35187;31.882;34.828;2023-07-28T10:30:53;11;11;
33431;PMS5003;35187;31.882;34.828;2023-07-28T10:33:26;13;12;
33431;PMS5003;35187;31.882;34.828;2023-07-28T10:35:57;11;10;
33431;PMS5003;35187;31.882;34.828;2023-07-28T10:38:31;10;9;
33431;PMS5003;35187;31.882;34.828;2023-07-28T10:41:07;8;7;
33431;PMS5003;35187;31.882;34.828;2023-07-28T10:43:42;9;9;
33431;PMS5003;35187;31.882;34.828;2023-07-28T10:46:12;12;11;
33431;PMS5003;35187;31.882;34.828;2023-07-28T10:48:43;9;9;
33431;PMS5003;35187;31.882;34.828;2023-07-28T10:51:19;8;8;
33431;PMS5003;35187;31.882;34.828;2023-07-28T10:53:50;12;11;
33431;PMS5003;35187;31.882;34.828;2023-07-28T10:56:22;12;11;
33431;PMS5003;35187;31.882;34.828;2023-07-28T10:58:55;13;13;
33431;PMS5003;35187;31.882;34.828;2023-07-28T11:01:30;22;21;
33431;PMS5003;35187;31.882;34.828;2023-07-28T11:04:05;23;23;
33431;PMS5003;35187;31.882;34.828;2023-07-28T11:06:36;10;9;
33431;PMS5003;35187;31.882;34.828;2023-07-28T11:09:07;11;10;
33431;PMS5003;35187;31.882;34.828;2023-07-28T11:11:38;9;9;
33431;PMS5003;35187;31.882;34.828;2023-07-28T11:14:09;10;9;
33431;PMS5003;35187;31.882;34.828;2023-07-28T11:16:39;8;8;
33431;PMS5003;35187;31.882;34.828;2023-07-28T11:19:10;10;9;
33431;PMS5003;35187;31.882;34.828;2023-07-28T11:21:41;10;10;
33431;PMS5003;35187;31.882;34.828;2023-07-28T11:24:17;9;9;
33431;PMS5003;35187;31.882;34.828;2023-07-28T11:26:49;10;10;
33431;PMS5003;35187;31.882;34.828;2023-07-28T11:29:20;9;9;
33431;PMS5003;35187;31.882;34.828;2023-07-28T11:31:51;10;9;
33431;PMS5003;35187;31.882;34.828;2023-07-28T11:34:21;9;9;
33431;PMS5003;35187;31.882;34.828;2023-07-28T11:36:51;11;10;
33431;PMS5003;35187;31.882;34.828;2023-07-28T11:39:26;11;10;
33431;PMS5003;35187;31.882;34.828;2023-07-28T11:41:55;11;10;
33431;PMS5003;35187;31.882;34.828;2023-07-28T11:44:25;12;10;
33431;PMS5003;35187;31.882;34.828;2023-07-28T11:46:54;10;10;
33431;PMS5003;35187;31.882;34.828;2023-07-28T11:49:28;9;9;
33431;PMS5003;35187;31.882;34.828;2023-07-28T11:51:58;9;9;
33431;PMS5003;35187;31.882;34.828;2023-07-28T11:54:29;11;9;
33431;PMS5003;35187;31.882;34.828;2023-07-28T11:57:03;10;10;
33431;PMS5003;35187;31.882;34.828;2023-07-28T11:59:34;12;11;
33431;PMS5003;35187;31.882;34.828;2023-07-28T12:02:07;12;12;
33431;PMS5003;35187;31.882;34.828;2023-07-28T12:04:38;9;9;
33431;PMS5003;35187;31.882;34.828;2023-07-28T12:07:10;12;10;
33431;PMS5003;35187;31.882;34.828;2023-07-28T12:09:48;10;9;
33431;PMS5003;35187;31.882;34.828;2023-07-28T12:12:18;10;9;
33431;PMS5003;35187;31.882;34.828;2023-07-28T12:15:27;10;9;
33431;PMS5003;35187;31.882;34.828;2023-07-28T12:18:04;10;10;
33431;PMS5003;35187;31.882;34.828;2023-07-28T12:22:36;9;8;
33431;PMS5003;35187;31.882;34.828;2023-07-28T12:25:22;9;9;
